Time;durP1;ratioP1;P1;durP2;ratioP2;P2;SDS_P1;SDS_P2;PMS_P1;PMS_P2;Temp;Humidity;BMP_temperature;BMP_pressure;BME280_temperature;BME280_humidity;BME280_pressure;Samples;Min_cycle;Max_cycle;Signal;HPM_P1;HPM_P2
2023/01/02 00:00:44;;;;;;;7.40;2.88;;;;;;;15.97;56.74;99855.09;5071339;28;20072;-54
2023/01/02 00:03:12;;;;;;;6.82;2.78;;;;;;;15.94;56.97;99847.41;5071359;28;20413;-55
2023/01/02 00:05:39;;;;;;;8.90;2.70;;;;;;;15.96;57.26;99847.84;5071626;28;20551;-55
2023/01/02 00:08:08;;;;;;;8.30;2.50;;;;;;;15.95;56.67;99841.41;5066594;28;20071;-53
2023/01/02 00:10:35;;;;;;;6.70;2.65;;;;;;;16.07;56.28;99851.69;5069093;28;20048;-54
2023/01/02 00:13:03;;;;;;;8.10;2.70;;;;;;;15.98;56.78;99863.16;5071568;28;20397;-54
2023/01/02 00:15:32;;;;;;;11.57;2.67;;;;;;;15.93;56.24;99842.94;5071276;28;20056;-54
2023/01/02 00:17:59;;;;;;;5.70;2.38;;;;;;;16.01;55.81;99836.31;5071379;28;20057;-54
2023/01/02 00:20:26;;;;;;;6.78;2.80;;;;;;;16.07;56.18;99853.72;5071071;28;20052;-54
2023/01/02 00:22:53;;;;;;;6.70;2.67;;;;;;;16.15;55.57;99831.00;5068665;28;20055;-53
2023/01/02 00:25:22;;;;;;;7.00;2.53;;;;;;;16.17;55.72;99851.13;5074854;28;20091;-54
2023/01/02 00:27:52;;;;;;;14.18;3.22;;;;;;;16.17;55.35;99827.84;5056461;28;20052;-54
2023/01/02 00:30:19;;;;;;;9.05;2.78;;;;;;;16.19;55.75;99842.31;5054821;28;20490;-56
2023/01/02 00:32:47;;;;;;;6.50;2.88;;;;;;;16.21;54.68;99843.59;5054770;28;20056;-54
2023/01/02 00:35:14;;;;;;;7.63;2.70;;;;;;;16.23;54.67;99841.22;5054388;28;20060;-56
2023/01/02 00:37:41;;;;;;;8.10;2.55;;;;;;;16.28;54.44;99839.31;5065973;28;20059;-54
2023/01/02 00:40:12;;;;;;;5.65;2.42;;;;;;;16.21;55.28;99854.00;5073661;28;20052;-53
2023/01/02 00:42:41;;;;;;;10.90;2.50;;;;;;;16.26;55.05;99850.91;5060968;28;20059;-53
2023/01/02 00:45:12;;;;;;;6.82;2.30;;;;;;;16.26;54.72;99838.88;5054054;28;20057;-55
2023/01/02 00:47:40;;;;;;;4.72;2.38;;;;;;;16.35;54.74;99845.06;5054714;28;20053;-55
2023/01/02 00:50:08;;;;;;;9.18;2.38;;;;;;;16.29;55.48;99855.78;5055060;28;20053;-55
2023/01/02 00:52:35;;;;;;;8.57;2.67;;;;;;;16.17;59.61;99861.56;5052894;28;20049;-55
2023/01/02 00:55:02;;;;;;;8.18;3.15;;;;;;;16.18;60.08;99849.13;5054251;28;20059;-55
2023/01/02 00:57:30;;;;;;;10.23;3.22;;;;;;;15.68;64.84;99854.38;5054282;28;20060;-54
2023/01/02 00:59:58;;;;;;;7.60;2.75;;;;;;;15.57;63.95;99847.69;5053554;28;20053;-56
2023/01/02 01:02:25;;;;;;;9.55;2.70;;;;;;;15.41;62.86;99862.56;5053948;28;20482;-55
2023/01/02 01:04:53;;;;;;;7.43;2.78;;;;;;;15.21;62.99;99847.59;5053928;28;20060;-53
2023/01/02 01:07:20;;;;;;;7.05;2.70;;;;;;;15.26;62.63;99859.72;5059453;28;20448;-54
2023/01/02 01:09:47;;;;;;;7.32;2.72;;;;;;;15.14;64.09;99847.44;5074367;28;20063;-56
2023/01/02 01:12:18;;;;;;;6.97;2.92;;;;;;;15.19;63.63;99832.31;5073989;28;20059;-55
2023/01/02 01:14:49;;;;;;;5.53;2.50;;;;;;;15.14;64.00;99843.78;5074394;28;20401;-55
2023/01/02 01:17:21;;;;;;;6.65;2.65;;;;;;;15.13;64.43;99839.38;5073740;28;20421;-54
2023/01/02 01:19:51;;;;;;;5.25;2.22;;;;;;;15.12;64.73;99837.72;5074121;28;20497;-55
2023/01/02 01:22:18;;;;;;;7.70;2.97;;;;;;;15.12;63.18;99834.91;5069774;28;20057;-55
2023/01/02 01:24:45;;;;;;;7.45;3.08;;;;;;;15.11;63.90;99830.50;5074088;28;20075;-56
2023/01/02 01:27:16;;;;;;;8.27;2.70;;;;;;;15.19;62.03;99837.91;5060162;28;20509;-56
2023/01/02 01:29:43;;;;;;;7.43;2.80;;;;;;;15.24;61.44;99823.59;5053898;28;20049;-55
2023/01/02 01:32:17;;;;;;;7.53;2.70;;;;;;;15.26;61.83;99824.06;5053493;28;20052;-56
2023/01/02 01:34:44;;;;;;;7.65;2.88;;;;;;;15.30;61.97;99833.38;5053677;28;20389;-55
2023/01/02 01:37:12;;;;;;;6.03;2.67;;;;;;;15.29;61.21;99836.56;5064749;28;20044;-52
2023/01/02 01:39:39;;;;;;;6.18;2.67;;;;;;;15.29;60.79;99826.16;5073481;28;20489;-55
2023/01/02 01:42:06;;;;;;;6.78;3.05;;;;;;;15.41;60.73;99828.88;5073487;28;20404;-55
2023/01/02 01:44:47;;;;;;;6.18;2.67;;;;;;;15.36;60.83;99819.91;5073486;28;20059;-55
2023/01/02 01:47:24;;;;;;;9.48;2.45;;;;;;;15.37;60.02;99819.56;5073538;28;20048;-55
2023/01/02 01:49:57;;;;;;;5.90;2.30;;;;;;;15.45;60.96;99840.16;5072992;28;20052;-56
2023/01/02 01:52:28;;;;;;;6.97;2.72;;;;;;;15.48;60.19;99838.66;5069744;28;20417;-55
2023/01/02 01:55:00;;;;;;;8.15;2.85;;;;;;;15.53;59.65;99835.56;5073296;28;20413;-55
2023/01/02 01:57:32;;;;;;;8.20;2.72;;;;;;;15.53;59.71;99827.94;5072393;28;20049;-56
2023/01/02 02:00:04;;;;;;;8.60;2.33;;;;;;;15.60;58.99;99835.72;5072556;28;20075;-56
2023/01/02 02:02:33;;;;;;;6.32;2.22;;;;;;;15.65;58.50;99841.06;5072878;28;20079;-56
2023/01/02 02:05:04;;;;;;;6.55;2.88;;;;;;;15.71;57.44;99848.03;5068094;28;20485;-56
2023/01/02 02:07:35;;;;;;;8.07;2.58;;;;;;;15.72;57.98;99846.06;5076652;28;20597;-55
2023/01/02 02:10:08;;;;;;;7.50;2.88;;;;;;;15.73;58.80;99842.91;5073040;28;20049;-55
2023/01/02 02:12:35;;;;;;;6.63;2.38;;;;;;;15.57;60.66;99845.69;5072567;28;20056;-55
2023/01/02 02:15:04;;;;;;;6.50;2.70;;;;;;;15.33;64.40;99857.09;5072871;28;20052;-55
2023/01/02 02:17:44;;;;;;;9.43;2.65;;;;;;;15.22;63.86;99854.00;5069768;28;20048;-53
2023/01/02 02:20:24;;;;;;;7.78;2.80;;;;;;;15.16;64.27;99855.47;5068569;28;20711;-56
2023/01/02 02:23:20;;;;;;;8.13;3.20;;;;;;;15.08;64.75;99853.66;5072777;28;20461;-54
2023/01/02 02:26:06;;;;;;;6.82;2.85;;;;;;;14.87;66.46;99839.88;5070682;28;20060;-55
2023/01/02 02:28:58;;;;;;;5.50;2.67;;;;;;;14.85;65.52;99842.22;5008735;28;20410;-55
2023/01/02 02:31:35;;;;;;;10.20;3.03;;;;;;;14.81;65.15;99845.72;5066524;28;20432;-54
2023/01/02 02:34:12;;;;;;;6.47;2.55;;;;;;;14.89;63.98;99838.34;5072705;28;20444;-54
2023/01/02 02:36:42;;;;;;;7.05;2.90;;;;;;;14.81;63.42;99850.53;5068437;28;20060;-54
2023/01/02 02:39:19;;;;;;;8.43;2.83;;;;;;;14.88;63.21;99855.53;5072430;28;20060;-56
2023/01/02 02:41:56;;;;;;;7.97;2.60;;;;;;;14.98;62.76;99853.00;5066914;28;20049;-55
2023/01/02 02:44:32;;;;;;;8.57;2.65;;;;;;;15.06;62.16;99837.19;5052108;28;20065;-56
2023/01/02 02:47:06;;;;;;;6.07;2.55;;;;;;;15.16;60.88;99845.06;5058670;28;20044;-55
2023/01/02 02:49:46;;;;;;;8.43;2.53;;;;;;;15.21;60.63;99847.59;5072354;28;20056;-55
2023/01/02 02:52:20;;;;;;;7.38;2.58;;;;;;;15.32;60.00;99841.44;5067951;28;20489;-61
2023/01/02 02:54:53;;;;;;;6.55;2.42;;;;;;;15.37;59.39;99827.97;5072591;28;20067;-55
2023/01/02 02:57:23;;;;;;;6.00;2.30;;;;;;;15.44;60.55;99827.31;5067776;28;20416;-55
2023/01/02 02:59:50;;;;;;;6.82;2.47;;;;;;;15.39;58.88;99824.78;5031647;28;20051;-55
2023/01/02 03:02:19;;;;;;;7.90;2.72;;;;;;;15.45;59.59;99816.91;5038794;28;20049;-56
2023/01/02 03:04:49;;;;;;;5.97;2.70;;;;;;;15.43;59.78;99826.53;5067255;28;20049;-56
2023/01/02 03:07:27;;;;;;;5.32;2.25;;;;;;;15.43;58.90;99815.28;5067757;28;20056;-55
2023/01/02 03:10:08;;;;;;;6.78;2.50;;;;;;;15.46;58.60;99833.41;5072167;28;20057;-56
2023/01/02 03:12:45;;;;;;;5.40;2.42;;;;;;;15.50;58.73;99823.06;5071561;28;20055;-55
2023/01/02 03:15:20;;;;;;;7.90;2.67;;;;;;;15.57;57.49;99830.84;5072162;28;20052;-55
2023/01/02 03:18:03;;;;;;;5.43;2.30;;;;;;;15.64;57.09;99828.19;5072065;28;20499;-56
2023/01/02 03:20:38;;;;;;;8.45;2.78;;;;;;;15.52;59.07;99819.91;5067079;28;20056;-56
2023/01/02 03:23:11;;;;;;;8.23;2.72;;;;;;;15.49;60.51;99817.81;5072153;28;20057;-55
2023/01/02 03:25:39;;;;;;;9.07;2.97;;;;;;;15.48;60.09;99819.00;5071184;28;20056;-54
2023/01/02 03:28:10;;;;;;;5.03;2.63;;;;;;;15.40;60.90;99826.44;5052014;28;20072;-55
2023/01/02 03:30:40;;;;;;;7.22;2.60;;;;;;;15.13;64.18;99825.34;5051612;28;20055;-55
2023/01/02 03:33:14;;;;;;;5.75;2.53;;;;;;;15.09;65.24;99822.44;5052198;28;20064;-59
2023/01/02 03:35:44;;;;;;;8.93;2.90;;;;;;;14.84;67.62;99807.75;5060316;28;20123;-59
2023/01/02 03:38:15;;;;;;;8.40;2.95;;;;;;;14.74;65.87;99806.31;5071612;28;20056;-59
2023/01/02 03:40:46;;;;;;;6.88;2.60;;;;;;;14.78;63.37;99820.41;5071732;28;20052;-59
2023/01/02 03:43:17;;;;;;;6.63;2.45;;;;;;;14.79;63.83;99810.81;5071909;28;20068;-59
2023/01/02 03:45:48;;;;;;;8.70;3.17;;;;;;;14.86;63.63;99808.19;5054379;28;20052;-59
2023/01/02 03:48:27;;;;;;;4.72;2.45;;;;;;;14.95;61.70;99834.09;5052001;28;20049;-59
2023/01/02 03:50:57;;;;;;;6.22;2.75;;;;;;;15.02;62.28;99839.09;5070121;28;20060;-59
2023/01/02 03:53:26;;;;;;;6.80;2.30;;;;;;;14.98;61.57;99841.78;5072118;28;20512;-55
2023/01/02 03:56:05;;;;;;;5.38;2.30;;;;;;;15.11;59.98;99850.13;5071466;28;20053;-55
2023/01/02 03:58:45;;;;;;;7.32;2.70;;;;;;;15.05;60.28;99840.34;5072774;28;20045;-54
2023/01/02 04:01:18;;;;;;;8.75;2.35;;;;;;;15.16;60.74;99847.03;5075281;28;20059;-55
2023/01/02 04:03:52;;;;;;;7.32;2.80;;;;;;;15.13;60.66;99836.56;5071434;28;20053;-55
2023/01/02 04:06:26;;;;;;;9.45;2.47;;;;;;;15.15;59.71;99840.63;5075264;28;20053;-55
2023/01/02 04:09:00;;;;;;;7.10;2.65;;;;;;;15.16;58.20;99844.25;5075309;28;20048;-55
2023/01/02 04:11:30;;;;;;;7.80;2.90;;;;;;;15.13;58.21;99839.38;5075106;28;20048;-56
2023/01/02 04:14:00;;;;;;;8.80;2.72;;;;;;;15.21;58.46;99841.19;5075313;28;20048;-55
2023/01/02 04:16:30;;;;;;;11.15;3.03;;;;;;;15.22;58.25;99838.03;5074719;28;20393;-55
2023/01/02 04:19:05;;;;;;;6.13;2.45;;;;;;;15.21;59.42;99844.00;5071070;28;20063;-55
2023/01/02 04:21:36;;;;;;;7.85;2.85;;;;;;;15.23;61.48;99838.81;5061133;28;20048;-54
2023/01/02 04:24:09;;;;;;;5.03;2.17;;;;;;;14.92;63.88;99845.22;5054588;28;20057;-55
2023/01/02 04:26:45;;;;;;;13.73;3.67;;;;;;;14.78;65.32;99854.03;5046458;28;20053;-54
2023/01/02 04:29:13;;;;;;;7.07;3.05;;;;;;;14.75;64.19;99851.97;5060639;28;20053;-55
2023/01/02 04:31:45;;;;;;;6.32;2.95;;;;;;;14.60;62.65;99865.56;5074741;28;20056;-53
2023/01/02 04:34:17;;;;;;;12.32;2.92;;;;;;;14.56;65.53;99856.25;5071381;28;20059;-54
2023/01/02 04:36:45;;;;;;;8.73;3.05;;;;;;;14.26;66.15;99861.34;5074709;28;20055;-54
2023/01/02 04:39:12;;;;;;;9.73;2.88;;;;;;;14.36;67.02;99869.25;5074752;28;20049;-55
2023/01/02 04:41:41;;;;;;;9.77;3.40;;;;;;;14.09;68.56;99836.41;5074506;28;20409;-55
2023/01/02 04:44:08;;;;;;;6.03;3.20;;;;;;;14.07;68.96;99831.19;5073155;28;20397;-54
2023/01/02 04:46:35;;;;;;;8.30;3.85;;;;;;;13.93;69.59;99839.13;5074513;28;20052;-54
2023/01/02 04:49:03;;;;;;;8.80;3.20;;;;;;;13.92;70.98;99831.88;5060489;28;20401;-53
2023/01/02 04:51:31;;;;;;;9.25;3.00;;;;;;;13.91;70.56;99845.06;5074358;28;20045;-53
2023/01/02 04:53:58;;;;;;;9.85;3.45;;;;;;;13.90;69.08;99845.41;5074504;28;20052;-54
2023/01/02 04:56:26;;;;;;;6.07;2.97;;;;;;;13.86;68.78;99850.09;5074487;28;20405;-55
2023/01/02 04:58:53;;;;;;;8.93;4.05;;;;;;;13.92;70.13;99838.31;5071650;28;20057;-53
2023/01/02 05:01:21;;;;;;;8.25;2.72;;;;;;;13.94;69.44;99837.94;5074191;28;20060;-57
2023/01/02 05:03:51;;;;;;;8.75;3.45;;;;;;;13.93;69.43;99845.53;5070215;28;20049;-55
2023/01/02 05:06:18;;;;;;;9.18;3.58;;;;;;;13.94;69.15;99858.38;5064086;28;20049;-54
2023/01/02 05:08:47;;;;;;;9.32;3.45;;;;;;;13.94;68.73;99840.75;5073692;28;20049;-53
2023/01/02 05:11:16;;;;;;;6.97;2.55;;;;;;;14.04;67.82;99851.47;5073965;28;20059;-54
2023/01/02 05:13:44;;;;;;;10.70;3.65;;;;;;;14.15;67.35;99854.59;5073952;28;20048;-53
2023/01/02 05:16:12;;;;;;;7.22;2.55;;;;;;;14.20;66.64;99846.78;5060788;28;20057;-54
2023/01/02 05:18:39;;;;;;;4.95;2.47;;;;;;;14.21;65.55;99867.19;5052444;28;20060;-53
2023/01/02 05:23:47;;;;;;;7.80;2.83;;;;;;;14.24;65.88;99876.84;5073141;28;20048;-53
2023/01/02 05:23:59;;;;;;;6.25;2.80;;;;;;;14.31;65.69;99886.31;5073886;28;20064;-53
2023/01/02 05:26:29;;;;;;;8.23;2.72;;;;;;;14.38;65.33;99866.91;5066816;28;20056;-54
2023/01/02 05:28:56;;;;;;;7.85;2.90;;;;;;;14.37;64.15;99881.28;5053645;28;20056;-54
2023/01/02 05:31:24;;;;;;;13.18;3.38;;;;;;;14.45;64.21;99880.31;5053864;28;20060;-54
2023/01/02 05:33:52;;;;;;;7.68;2.42;;;;;;;14.52;63.53;99888.94;5063475;28;20059;-55
2023/01/02 05:36:20;;;;;;;4.47;2.42;;;;;;;14.54;64.40;99885.78;5068766;28;20052;-55
2023/01/02 05:38:47;;;;;;;7.10;2.85;;;;;;;14.44;64.48;99891.88;5073383;28;20048;-56
2023/01/02 05:41:17;;;;;;;7.72;3.13;;;;;;;14.45;64.66;99880.31;5058813;28;20064;-55
2023/01/02 05:43:44;;;;;;;7.53;2.80;;;;;;;14.53;64.13;99886.94;5061139;28;20413;-56
2023/01/02 05:46:14;;;;;;;6.43;2.47;;;;;;;14.59;62.35;99883.56;5073242;28;20055;-56
2023/01/02 05:48:41;;;;;;;10.90;3.00;;;;;;;14.53;62.05;99879.38;5069983;28;20119;-55
2023/01/02 05:51:11;;;;;;;7.28;2.30;;;;;;;14.59;63.45;99894.78;5060318;28;20048;-56
2023/01/02 05:53:39;;;;;;;9.57;2.80;;;;;;;14.63;61.96;99899.66;5071639;28;20048;-56
2023/01/02 05:56:08;;;;;;;9.10;2.60;;;;;;;14.76;61.38;99892.84;5072831;28;20045;-56
2023/01/02 05:58:38;;;;;;;7.27;2.63;;;;;;;14.76;60.68;99895.63;5054744;28;20056;-57
2023/01/02 06:01:07;;;;;;;4.80;2.53;;;;;;;14.82;61.27;99892.25;5053396;28;20053;-56
2023/01/02 06:03:35;;;;;;;8.88;2.97;;;;;;;14.80;61.44;99888.97;5054248;28;20068;-56
2023/01/02 06:06:03;;;;;;;7.60;2.95;;;;;;;14.89;59.63;99897.22;5057163;28;20059;-57
2023/01/02 06:08:30;;;;;;;4.50;2.10;;;;;;;15.04;59.52;99900.44;5048925;28;20426;-57
2023/01/02 06:10:58;;;;;;;7.18;2.55;;;;;;;15.01;57.84;99905.59;5043509;28;20053;-56
2023/01/02 06:13:25;;;;;;;6.63;2.90;;;;;;;15.00;58.44;99898.34;5052834;28;20052;-54
2023/01/02 06:15:56;;;;;;;8.63;3.03;;;;;;;15.08;57.92;99912.56;5044104;28;20060;-55
2023/01/02 06:18:23;;;;;;;7.10;2.40;;;;;;;15.17;57.75;99904.78;5053739;28;20126;-55
2023/01/02 06:20:51;;;;;;;7.95;2.70;;;;;;;15.02;58.31;99917.63;5047791;28;20056;-55
2023/01/02 06:23:18;;;;;;;7.75;2.67;;;;;;;15.06;57.62;99900.91;5050506;28;20049;-55
2023/01/02 06:25:46;;;;;;;11.93;2.70;;;;;;;15.06;60.32;99912.13;5049805;28;20044;-62
2023/01/02 06:28:13;;;;;;;5.75;2.35;;;;;;;14.95;60.65;99907.03;5047213;28;20470;-64
2023/01/02 06:30:40;;;;;;;8.18;2.90;;;;;;;14.99;60.21;99929.53;5050317;28;20490;-63
2023/01/02 06:33:09;;;;;;;6.05;2.65;;;;;;;15.03;60.81;99913.63;5053193;28;20049;-63
2023/01/02 06:35:36;;;;;;;8.68;2.78;;;;;;;15.10;61.29;99907.38;5061794;28;20524;-63
2023/01/02 06:38:03;;;;;;;7.85;2.63;;;;;;;15.02;60.25;99935.25;5051010;28;20053;-60
2023/01/02 06:40:30;;;;;;;7.75;2.95;;;;;;;15.18;59.76;99910.06;5049079;28;20049;-63
2023/01/02 06:42:58;;;;;;;9.00;2.88;;;;;;;15.29;57.64;99915.94;5046805;28;20056;-56
2023/01/02 06:45:25;;;;;;;7.53;2.97;;;;;;;15.46;56.28;99925.22;5050655;28;20064;-56
2023/01/02 06:47:57;;;;;;;6.93;2.53;;;;;;;15.32;56.87;99926.44;5051220;28;20552;-55
2023/01/02 06:50:25;;;;;;;8.48;2.45;;;;;;;15.47;57.73;99921.22;5060341;28;20053;-56
2023/01/02 06:52:53;;;;;;;7.63;2.40;;;;;;;15.50;56.54;99934.53;5068277;28;20056;-55
2023/01/02 06:55:20;;;;;;;7.13;2.63;;;;;;;15.47;56.54;99926.81;5072084;28;20508;-55
2023/01/02 06:57:47;;;;;;;9.10;3.17;;;;;;;15.43;56.78;99930.38;5060158;28;20089;-56
2023/01/02 07:00:15;;;;;;;5.95;2.55;;;;;;;15.36;56.46;99920.94;5052244;28;20371;-54
2023/01/02 07:02:42;;;;;;;7.90;2.38;;;;;;;15.39;56.16;99940.69;5051911;28;20052;-55
2023/01/02 07:05:11;;;;;;;9.43;2.72;;;;;;;15.29;57.42;99937.59;5062971;28;20048;-55
2023/01/02 07:07:40;;;;;;;6.68;2.40;;;;;;;15.18;56.75;99928.84;5070291;28;20412;-56
2023/01/02 07:10:08;;;;;;;5.47;2.40;;;;;;;15.23;57.53;99940.63;5066401;28;20485;-55
2023/01/02 07:12:36;;;;;;;10.73;3.25;;;;;;;15.13;56.90;99945.97;5071415;28;20059;-55
2023/01/02 07:15:05;;;;;;;7.40;2.58;;;;;;;15.22;57.92;99929.78;5071710;28;20056;-53
2023/01/02 07:17:33;;;;;;;6.55;2.85;;;;;;;15.10;57.18;99941.06;5067754;28;20421;-53
2023/01/02 07:20:00;;;;;;;7.95;3.22;;;;;;;15.01;58.23;99956.06;5056558;28;20049;-56
2023/01/02 07:22:27;;;;;;;9.27;2.90;;;;;;;15.00;58.38;99937.59;5071533;28;20059;-56
2023/01/02 07:24:56;;;;;;;8.45;2.50;;;;;;;15.09;57.59;99939.44;5070678;28;20382;-55
2023/01/02 07:27:23;;;;;;;8.40;2.53;;;;;;;15.07;57.75;99947.38;5071621;28;20385;-56
2023/01/02 07:29:50;;;;;;;9.60;3.20;;;;;;;15.11;57.62;99942.69;5071740;28;20052;-53
2023/01/02 07:32:18;;;;;;;4.25;2.20;;;;;;;15.02;58.33;99952.09;5070497;28;20052;-54
2023/01/02 07:34:45;;;;;;;6.97;2.40;;;;;;;14.94;58.46;99972.69;5067563;28;20504;-54
2023/01/02 07:37:12;;;;;;;7.30;2.78;;;;;;;14.94;58.82;99960.66;5075169;28;20071;-54
2023/01/02 07:39:39;;;;;;;7.50;2.45;;;;;;;14.87;60.88;99966.88;5075474;28;20385;-53
2023/01/02 07:42:08;;;;;;;5.50;2.95;;;;;;;14.77;61.87;99956.16;5070121;28;20412;-49
2023/01/02 07:44:36;;;;;;;8.57;3.08;;;;;;;14.82;61.75;99961.50;5048805;28;20064;-51
2023/01/02 07:47:03;;;;;;;7.55;2.92;;;;;;;14.74;61.86;99962.47;5049476;28;20056;-51
2023/01/02 07:49:30;;;;;;;5.82;2.90;;;;;;;14.99;60.49;99957.56;5049312;28;20509;-55
2023/01/02 07:51:57;;;;;;;6.75;2.72;;;;;;;15.18;59.10;99970.94;5049901;28;20061;-54
2023/01/02 07:54:24;;;;;;;9.50;2.70;;;;;;;15.09;60.38;99971.09;5050771;28;20057;-56
2023/01/02 07:56:52;;;;;;;7.20;3.33;;;;;;;15.05;60.53;99978.59;5049513;28;20053;-54
2023/01/02 07:59:21;;;;;;;4.78;2.67;;;;;;;14.95;60.47;99982.75;5051656;28;20064;-55
2023/01/02 08:01:48;;;;;;;7.15;2.53;;;;;;;14.73;61.35;99994.47;5047138;28;20057;-56
2023/01/02 08:04:15;;;;;;;8.20;2.95;;;;;;;14.72;61.42;100007.69;5045422;28;20064;-56
2023/01/02 08:06:42;;;;;;;7.32;2.58;;;;;;;14.49;63.58;100007.34;5048331;28;20871;-52
2023/01/02 08:09:09;;;;;;;5.25;2.50;;;;;;;14.49;64.50;100010.16;5048877;28;20064;-54
2023/01/02 08:11:37;;;;;;;7.43;3.00;;;;;;;14.36;64.12;100005.72;5048336;28;20061;-55
2023/01/02 08:14:04;;;;;;;5.55;2.63;;;;;;;14.17;65.77;100014.72;5051641;28;20053;-56
2023/01/02 08:16:33;;;;;;;7.38;2.90;;;;;;;14.22;66.50;100017.28;5047089;28;20056;-56
2023/01/02 08:19:01;;;;;;;9.07;2.92;;;;;;;14.04;66.09;100019.50;5049024;28;20128;-54
2023/01/02 08:21:28;;;;;;;6.05;3.47;;;;;;;13.91;67.68;100026.25;5049108;28;20056;-54
2023/01/02 08:23:56;;;;;;;7.32;3.10;;;;;;;13.98;68.20;100021.72;5047812;28;20057;-54
2023/01/02 08:26:24;;;;;;;5.63;3.00;;;;;;;13.85;68.71;100033.25;5048168;28;20045;-55
2023/01/02 08:28:51;;;;;;;5.60;2.90;;;;;;;13.86;67.55;100029.25;5051642;28;20068;-56
2023/01/02 08:31:21;;;;;;;10.43;3.83;;;;;;;13.71;68.14;100031.59;5048695;28;20049;-54
2023/01/02 08:33:49;;;;;;;;;;;;;;;13.78;68.03;100034.63;5046697;28;20057;-54
2023/01/02 08:36:16;;;;;;;6.95;2.80;;;;;;;13.79;68.82;100041.03;5048313;28;19928;-57
2023/01/02 08:38:44;;;;;;;7.65;2.47;;;;;;;13.87;68.85;100047.72;5047804;28;20045;-53
2023/01/02 08:41:11;;;;;;;6.45;3.10;;;;;;;13.68;70.29;100060.25;5047216;28;20052;-56
2023/01/02 08:43:38;;;;;;;7.78;2.70;;;;;;;13.72;70.80;100064.00;5046989;28;20489;-55
2023/01/02 08:46:07;;;;;;;6.00;2.67;;;;;;;13.72;71.01;100069.59;5048149;28;20067;-55
2023/01/02 08:48:35;;;;;;;4.83;2.47;;;;;;;13.67;70.90;100072.63;5047973;28;20077;-55
2023/01/02 08:51:04;;;;;;;8.20;2.80;;;;;;;13.65;71.32;100074.94;5050600;28;20510;-53
2023/01/02 08:53:32;;;;;;;5.22;2.88;;;;;;;13.72;71.54;100080.78;5048051;28;20044;-55
2023/01/02 08:56:18;;;;;;;6.40;2.55;;;;;;;13.56;71.86;100088.19;5050093;28;20057;-55
2023/01/02 08:58:49;;;;;;;5.88;2.78;;;;;;;13.57;72.12;100099.06;5047481;28;20505;-56
2023/01/02 09:01:17;;;;;;;5.88;2.78;;;;;;;13.52;72.95;100099.28;5041755;28;20108;-57
2023/01/02 09:03:44;;;;;;;6.63;2.42;;;;;;;13.50;72.03;100100.75;5047846;28;20068;-57
2023/01/02 09:06:12;;;;;;;6.35;2.90;;;;;;;13.31;73.96;100121.69;5047478;28;20064;-56
2023/01/02 09:08:40;;;;;;;5.15;2.70;;;;;;;13.21;74.23;100127.66;5044941;28;20049;-54
2023/01/02 09:11:11;;;;;;;5.93;2.67;;;;;;;13.33;74.65;100136.16;5046561;28;20606;-54
2023/01/02 09:13:39;;;;;;;6.63;2.85;;;;;;;13.32;74.45;100126.09;5046570;28;20422;-55
2023/01/02 09:16:07;;;;;;;4.72;2.40;;;;;;;13.38;74.27;100144.31;5046963;28;20053;-54
2023/01/02 09:18:34;;;;;;;6.57;2.83;;;;;;;13.50;73.19;100137.97;5047577;28;20057;-53
2023/01/02 09:21:02;;;;;;;6.47;2.72;;;;;;;13.60;72.98;100145.13;5047517;28;20048;-54
2023/01/02 09:23:33;;;;;;;5.80;2.25;;;;;;;13.65;72.47;100144.91;5047810;28;20052;-54
2023/01/02 09:26:01;;;;;;;3.55;2.40;;;;;;;13.68;72.95;100144.22;5047229;28;20076;-54
2023/01/02 09:28:30;;;;;;;4.40;2.20;;;;;;;13.63;72.37;100155.63;5047102;28;20053;-54
2023/01/02 09:30:57;;;;;;;4.82;2.10;;;;;;;13.69;72.05;100159.88;5045617;28;20084;-52
2023/01/02 09:33:24;;;;;;;6.25;2.42;;;;;;;13.65;71.72;100163.66;5046383;28;20063;-54
2023/01/02 09:35:52;;;;;;;4.70;2.08;;;;;;;13.63;71.34;100178.03;5049067;28;20049;-54
2023/01/02 09:38:19;;;;;;;3.80;2.17;;;;;;;13.65;71.92;100186.91;5046487;28;20140;-55
2023/01/02 09:40:51;;;;;;;4.13;2.10;;;;;;;13.61;71.17;100191.53;5047441;28;20052;-57
2023/01/02 09:43:30;;;;;;;4.00;1.85;;;;;;;13.63;71.14;100192.03;5046382;28;20474;-55
2023/01/02 09:46:00;;;;;;;4.05;1.95;;;;;;;13.60;72.42;100204.69;5044364;28;20055;-55
2023/01/02 09:48:31;;;;;;;;;;;;;;;13.60;71.96;100213.09;5047055;28;20044;-56
2023/01/02 09:50:58;;;;;;;4.38;2.28;;;;;;;13.53;75.74;100206.41;5045787;28;19943;-56
2023/01/02 09:53:27;;;;;;;4.43;2.58;;;;;;;13.50;77.25;100215.47;5046979;28;20417;-54
2023/01/02 09:56:02;;;;;;;4.93;2.28;;;;;;;13.37;76.91;100220.19;5045266;28;20061;-54
2023/01/02 09:58:38;;;;;;;3.65;2.55;;;;;;;13.53;76.17;100221.22;5046093;28;20048;-55
2023/01/02 10:01:09;;;;;;;3.05;1.83;;;;;;;13.65;75.78;100217.69;5046225;28;20071;-55
2023/01/02 10:03:45;;;;;;;4.90;1.50;;;;;;;13.75;72.74;100234.06;5045321;28;20436;-52
2023/01/02 10:06:17;;;;;;;3.42;1.67;;;;;;;13.74;72.40;100229.63;5045955;28;20052;-55
2023/01/02 10:08:59;;;;;;;3.80;1.50;;;;;;;13.74;71.03;100243.63;5045794;28;20128;-57
2023/01/02 10:11:48;;;;;;;2.75;1.40;;;;;;;13.89;71.02;100235.75;5045306;28;20048;-55
2023/01/02 10:14:25;;;;;;;1.55;1.10;;;;;;;13.68;69.35;100244.97;5045573;28;20057;-57
2023/01/02 10:16:56;;;;;;;1.65;1.15;;;;;;;13.72;69.62;100248.75;5044861;28;20068;-53
2023/01/02 10:19:32;;;;;;;2.17;0.90;;;;;;;13.74;67.69;100257.63;5046084;28;20422;-52
2023/01/02 10:22:01;;;;;;;1.92;0.90;;;;;;;13.71;67.65;100260.28;5045772;28;20052;-53
2023/01/02 10:24:39;;;;;;;1.87;0.83;;;;;;;13.43;70.21;100268.38;5047865;28;20056;-46
2023/01/02 10:27:13;;;;;;;2.83;0.93;;;;;;;13.47;69.07;100281.34;5046889;28;20064;-47
2023/01/02 10:29:46;;;;;;;1.13;0.70;;;;;;;13.60;67.95;100273.84;5049708;28;20072;-55
2023/01/02 10:32:19;;;;;;;1.73;0.90;;;;;;;13.78;67.01;100274.56;5047128;28;20502;-53
2023/01/02 10:35:04;;;;;;;2.92;1.20;;;;;;;13.86;66.33;100284.03;5046449;28;20052;-55
2023/01/02 10:37:31;;;;;;;2.20;1.13;;;;;;;13.86;66.43;100276.47;5045896;28;20048;-54
2023/01/02 10:39:58;;;;;;;2.90;1.13;;;;;;;13.79;65.34;100282.59;5046078;28;20063;-55
2023/01/02 10:42:27;;;;;;;1.58;0.80;;;;;;;13.80;65.06;100266.63;5047598;28;20068;-56
2023/01/02 10:44:54;;;;;;;2.10;1.35;;;;;;;13.78;66.24;100280.16;5044520;28;20052;-54
2023/01/02 10:47:34;;;;;;;2.15;1.23;;;;;;;13.78;65.35;100280.16;5046509;28;20053;-55
2023/01/02 10:50:04;;;;;;;3.33;1.63;;;;;;;13.83;65.47;100279.13;5045538;28;20559;-55
2023/01/02 10:52:34;;;;;;;3.13;1.90;;;;;;;13.83;65.03;100287.53;5045193;28;20045;-54
2023/01/02 10:55:02;;;;;;;2.80;2.25;;;;;;;13.77;65.11;100290.53;5043537;28;20048;-53
2023/01/02 10:57:41;;;;;;;3.42;1.83;;;;;;;13.75;65.28;100292.88;5046653;28;20063;-56
2023/01/02 11:00:25;;;;;;;3.50;2.15;;;;;;;13.79;65.69;100292.97;5045360;28;20052;-54
2023/01/02 11:02:54;;;;;;;3.03;2.38;;;;;;;13.63;66.50;100301.16;5045856;28;20064;-53
2023/01/02 11:05:25;;;;;;;3.60;2.73;;;;;;;13.72;66.31;100295.50;5042707;28;20053;-56
2023/01/02 11:07:53;;;;;;;3.80;2.70;;;;;;;13.64;66.48;100307.59;5045130;28;20489;-57
2023/01/02 11:10:27;;;;;;;2.75;1.95;;;;;;;13.64;65.35;100302.00;5043090;28;20053;-55
2023/01/02 11:12:56;;;;;;;2.38;2.00;;;;;;;13.66;65.77;100289.28;5045656;28;20710;-56
2023/01/02 11:15:26;;;;;;;3.07;1.90;;;;;;;13.64;65.86;100302.78;5046647;28;20124;-56
2023/01/02 11:17:53;;;;;;;2.88;1.90;;;;;;;13.58;66.23;100315.34;5042548;28;21019;-55
2023/01/02 11:20:26;;;;;;;2.58;1.70;;;;;;;13.48;66.31;100316.56;5047936;28;20405;-54
2023/01/02 11:22:56;;;;;;;2.80;2.20;;;;;;;13.37;66.38;100312.50;5042488;28;20072;-56
2023/01/02 11:25:28;;;;;;;2.88;2.45;;;;;;;13.43;67.06;100307.53;5046928;28;20052;-55
2023/01/02 11:27:59;;;;;;;4.88;2.70;;;;;;;13.52;67.12;100306.34;5042140;28;20049;-56
2023/01/02 11:30:33;;;;;;;4.10;2.40;;;;;;;13.65;66.54;100310.06;5049806;28;20057;-55
2023/01/02 11:33:08;;;;;;;5.13;3.67;;;;;;;13.70;66.83;100317.41;5046402;28;20057;-53
2023/01/02 11:35:43;;;;;;;3.03;2.58;;;;;;;13.58;67.58;100323.75;5048129;28;20061;-55
2023/01/02 11:38:15;;;;;;;3.63;2.45;;;;;;;13.47;67.53;100323.31;5046324;28;20457;-55
2023/01/02 11:40:53;;;;;;;4.50;3.10;;;;;;;13.62;66.59;100326.69;5041409;28;20417;-54
2023/01/02 11:46:27;;;;;;;4.15;2.92;;;;;;;13.93;65.62;100326.31;5054827;28;20072;-54
2023/01/02 11:49:02;;;;;;;3.45;3.00;;;;;;;13.91;65.18;100323.84;5043679;28;20528;-55